sensor_id;sensor_type;location;lat;lon;timestamp;temperature;humidity
16074;DHT22;8141;52.664;5.074;2023-06-26T00:01:27;29.00;59.50
16074;DHT22;8141;52.664;5.074;2023-06-26T00:04:00;29.00;59.40
16074;DHT22;8141;52.664;5.074;2023-06-26T00:06:26;29.00;59.60
16074;DHT22;8141;52.664;5.074;2023-06-26T00:08:56;29.00;59.30
16074;DHT22;8141;52.664;5.074;2023-06-26T00:11:24;29.00;59.40
16074;DHT22;8141;52.664;5.074;2023-06-26T00:13:51;29.00;59.50
16074;DHT22;8141;52.664;5.074;2023-06-26T00:16:17;29.00;59.40
16074;DHT22;8141;52.664;5.074;2023-06-26T00:18:43;29.00;59.40
16074;DHT22;8141;52.664;5.074;2023-06-26T00:21:08;29.00;59.30
16074;DHT22;8141;52.664;5.074;2023-06-26T00:23:34;29.00;59.30
16074;DHT22;8141;52.664;5.074;2023-06-26T00:26:04;29.00;59.20
16074;DHT22;8141;52.664;5.074;2023-06-26T00:28:29;29.00;59.40
16074;DHT22;8141;52.664;5.074;2023-06-26T00:30:55;29.00;59.60
16074;DHT22;8141;52.664;5.074;2023-06-26T00:33:21;29.00;59.60
16074;DHT22;8141;52.664;5.074;2023-06-26T00:35:47;29.00;59.60
16074;DHT22;8141;52.664;5.074;2023-06-26T00:38:13;29.00;59.50
16074;DHT22;8141;52.664;5.074;2023-06-26T00:40:38;29.00;59.60
16074;DHT22;8141;52.664;5.074;2023-06-26T00:43:04;29.00;59.40
16074;DHT22;8141;52.664;5.074;2023-06-26T00:45:30;29.00;59.30
16074;DHT22;8141;52.664;5.074;2023-06-26T00:47:56;29.00;59.20
16074;DHT22;8141;52.664;5.074;2023-06-26T00:50:22;29.00;59.10
16074;DHT22;8141;52.664;5.074;2023-06-26T00:52:48;29.00;59.20
16074;DHT22;8141;52.664;5.074;2023-06-26T00:55:14;29.00;59.10
16074;DHT22;8141;52.664;5.074;2023-06-26T00:57:39;29.00;59.30
16074;DHT22;8141;52.664;5.074;2023-06-26T01:00:06;29.00;59.50
16074;DHT22;8141;52.664;5.074;2023-06-26T01:02:32;29.00;59.50
16074;DHT22;8141;52.664;5.074;2023-06-26T01:05:01;29.00;59.40
16074;DHT22;8141;52.664;5.074;2023-06-26T01:07:29;29.00;59.30
16074;DHT22;8141;52.664;5.074;2023-06-26T01:09:57;29.00;59.30
16074;DHT22;8141;52.664;5.074;2023-06-26T01:12:23;29.00;59.40
16074;DHT22;8141;52.664;5.074;2023-06-26T01:14:49;29.00;59.20
16074;DHT22;8141;52.664;5.074;2023-06-26T01:17:15;29.00;59.50
16074;DHT22;8141;52.664;5.074;2023-06-26T01:19:42;29.00;59.30
16074;DHT22;8141;52.664;5.074;2023-06-26T01:22:36;29.00;59.30
16074;DHT22;8141;52.664;5.074;2023-06-26T01:25:33;29.00;59.50
16074;DHT22;8141;52.664;5.074;2023-06-26T01:28:05;29.00;59.50
16074;DHT22;8141;52.664;5.074;2023-06-26T01:30:32;29.00;59.30
16074;DHT22;8141;52.664;5.074;2023-06-26T01:33:00;29.00;59.50
16074;DHT22;8141;52.664;5.074;2023-06-26T01:35:27;29.00;59.50
16074;DHT22;8141;52.664;5.074;2023-06-26T01:37:54;29.00;59.40
16074;DHT22;8141;52.664;5.074;2023-06-26T01:40:37;29.00;59.50
16074;DHT22;8141;52.664;5.074;2023-06-26T01:43:03;29.00;59.70
16074;DHT22;8141;52.664;5.074;2023-06-26T01:45:31;29.00;60.00
16074;DHT22;8141;52.664;5.074;2023-06-26T01:48:00;29.00;59.80
16074;DHT22;8141;52.664;5.074;2023-06-26T01:50:29;29.00;59.80
16074;DHT22;8141;52.664;5.074;2023-06-26T01:53:10;29.00;59.80
16074;DHT22;8141;52.664;5.074;2023-06-26T01:55:47;29.00;59.70
16074;DHT22;8141;52.664;5.074;2023-06-26T01:58:17;29.00;59.60
16074;DHT22;8141;52.664;5.074;2023-06-26T02:00:46;29.00;59.60
16074;DHT22;8141;52.664;5.074;2023-06-26T02:03:12;29.00;59.60
16074;DHT22;8141;52.664;5.074;2023-06-26T02:05:38;29.00;59.60
16074;DHT22;8141;52.664;5.074;2023-06-26T02:08:04;29.00;59.60
16074;DHT22;8141;52.664;5.074;2023-06-26T02:10:30;29.00;59.60
16074;DHT22;8141;52.664;5.074;2023-06-26T02:12:56;29.00;59.60
16074;DHT22;8141;52.664;5.074;2023-06-26T02:15:22;29.00;59.60
16074;DHT22;8141;52.664;5.074;2023-06-26T02:17:48;29.00;59.50
16074;DHT22;8141;52.664;5.074;2023-06-26T02:20:14;29.00;59.70
16074;DHT22;8141;52.664;5.074;2023-06-26T02:22:41;29.00;59.80
16074;DHT22;8141;52.664;5.074;2023-06-26T02:25:08;29.00;59.70
16074;DHT22;8141;52.664;5.074;2023-06-26T02:27:38;29.00;59.80
16074;DHT22;8141;52.664;5.074;2023-06-26T02:30:04;29.00;59.80
16074;DHT22;8141;52.664;5.074;2023-06-26T02:32:30;29.00;59.70
16074;DHT22;8141;52.664;5.074;2023-06-26T02:34:56;29.00;59.70
16074;DHT22;8141;52.664;5.074;2023-06-26T02:37:22;29.00;59.60
16074;DHT22;8141;52.664;5.074;2023-06-26T02:39:47;29.00;59.60
16074;DHT22;8141;52.664;5.074;2023-06-26T02:42:14;29.00;59.60
16074;DHT22;8141;52.664;5.074;2023-06-26T02:44:39;29.00;59.60
16074;DHT22;8141;52.664;5.074;2023-06-26T02:47:06;29.00;59.60
16074;DHT22;8141;52.664;5.074;2023-06-26T02:49:32;29.00;59.60
16074;DHT22;8141;52.664;5.074;2023-06-26T02:51:57;29.00;59.60
16074;DHT22;8141;52.664;5.074;2023-06-26T02:54:23;29.00;59.60
16074;DHT22;8141;52.664;5.074;2023-06-26T02:56:49;29.00;59.70
16074;DHT22;8141;52.664;5.074;2023-06-26T02:59:14;29.00;59.80
16074;DHT22;8141;52.664;5.074;2023-06-26T03:01:40;29.00;59.70
16074;DHT22;8141;52.664;5.074;2023-06-26T03:04:06;29.00;59.70
16074;DHT22;8141;52.664;5.074;2023-06-26T03:06:32;29.00;59.70
16074;DHT22;8141;52.664;5.074;2023-06-26T03:08:58;29.00;59.80
16074;DHT22;8141;52.664;5.074;2023-06-26T03:11:23;29.00;59.80
16074;DHT22;8141;52.664;5.074;2023-06-26T03:13:49;29.00;59.90
16074;DHT22;8141;52.664;5.074;2023-06-26T03:16:15;29.00;60.30
16074;DHT22;8141;52.664;5.074;2023-06-26T03:18:41;29.00;59.80
16074;DHT22;8141;52.664;5.074;2023-06-26T03:21:06;29.00;59.80
16074;DHT22;8141;52.664;5.074;2023-06-26T03:23:32;29.00;59.80
16074;DHT22;8141;52.664;5.074;2023-06-26T03:25:58;29.00;59.80
16074;DHT22;8141;52.664;5.074;2023-06-26T03:28:24;29.00;59.80
16074;DHT22;8141;52.664;5.074;2023-06-26T03:30:49;29.00;60.50
16074;DHT22;8141;52.664;5.074;2023-06-26T03:33:15;29.00;59.80
16074;DHT22;8141;52.664;5.074;2023-06-26T03:35:41;29.00;59.70
16074;DHT22;8141;52.664;5.074;2023-06-26T03:38:06;29.00;59.70
16074;DHT22;8141;52.664;5.074;2023-06-26T03:40:32;29.00;59.80
16074;DHT22;8141;52.664;5.074;2023-06-26T03:42:58;29.00;59.70
16074;DHT22;8141;52.664;5.074;2023-06-26T03:45:23;29.00;59.60
16074;DHT22;8141;52.664;5.074;2023-06-26T03:47:49;29.00;59.70
16074;DHT22;8141;52.664;5.074;2023-06-26T03:50:18;29.00;59.60
16074;DHT22;8141;52.664;5.074;2023-06-26T03:52:44;29.00;59.70
16074;DHT22;8141;52.664;5.074;2023-06-26T03:55:10;29.00;59.80
16074;DHT22;8141;52.664;5.074;2023-06-26T03:57:36;29.00;59.60
16074;DHT22;8141;52.664;5.074;2023-06-26T04:00:03;29.00;59.60
16074;DHT22;8141;52.664;5.074;2023-06-26T04:02:38;29.00;59.60
16074;DHT22;8141;52.664;5.074;2023-06-26T04:05:04;29.00;59.70
16074;DHT22;8141;52.664;5.074;2023-06-26T04:07:30;29.00;59.50
16074;DHT22;8141;52.664;5.074;2023-06-26T04:09:57;28.90;59.50
16074;DHT22;8141;52.664;5.074;2023-06-26T04:12:23;29.00;59.70
16074;DHT22;8141;52.664;5.074;2023-06-26T04:14:49;29.00;59.60
16074;DHT22;8141;52.664;5.074;2023-06-26T04:17:14;29.00;59.70
16074;DHT22;8141;52.664;5.074;2023-06-26T04:19:40;29.00;59.70
16074;DHT22;8141;52.664;5.074;2023-06-26T04:22:06;29.00;59.60
16074;DHT22;8141;52.664;5.074;2023-06-26T04:24:32;29.00;59.70
16074;DHT22;8141;52.664;5.074;2023-06-26T04:26:57;28.90;59.60
16074;DHT22;8141;52.664;5.074;2023-06-26T04:29:25;29.00;59.70
16074;DHT22;8141;52.664;5.074;2023-06-26T04:31:52;29.00;59.70
16074;DHT22;8141;52.664;5.074;2023-06-26T04:34:24;29.00;59.70
16074;DHT22;8141;52.664;5.074;2023-06-26T04:36:51;29.00;59.80
16074;DHT22;8141;52.664;5.074;2023-06-26T04:39:17;29.00;60.20
16074;DHT22;8141;52.664;5.074;2023-06-26T04:41:43;29.00;59.70
16074;DHT22;8141;52.664;5.074;2023-06-26T04:44:09;28.90;59.70
16074;DHT22;8141;52.664;5.074;2023-06-26T04:46:36;28.90;59.80
16074;DHT22;8141;52.664;5.074;2023-06-26T04:49:02;29.00;60.00
16074;DHT22;8141;52.664;5.074;2023-06-26T04:51:28;29.00;60.90
16074;DHT22;8141;52.664;5.074;2023-06-26T04:53:54;29.00;59.70
16074;DHT22;8141;52.664;5.074;2023-06-26T04:56:20;29.00;59.20
16074;DHT22;8141;52.664;5.074;2023-06-26T04:58:46;28.90;59.40
16074;DHT22;8141;52.664;5.074;2023-06-26T05:01:11;28.90;58.80
16074;DHT22;8141;52.664;5.074;2023-06-26T05:03:39;28.90;58.60
16074;DHT22;8141;52.664;5.074;2023-06-26T05:06:05;28.90;58.40
16074;DHT22;8141;52.664;5.074;2023-06-26T05:08:31;28.80;57.90
16074;DHT22;8141;52.664;5.074;2023-06-26T05:10:57;28.80;58.00
16074;DHT22;8141;52.664;5.074;2023-06-26T05:13:25;28.80;57.90
16074;DHT22;8141;52.664;5.074;2023-06-26T05:15:52;28.80;57.60
16074;DHT22;8141;52.664;5.074;2023-06-26T05:18:18;28.80;57.70
16074;DHT22;8141;52.664;5.074;2023-06-26T05:20:45;28.80;57.70
16074;DHT22;8141;52.664;5.074;2023-06-26T05:23:11;28.80;57.50
16074;DHT22;8141;52.664;5.074;2023-06-26T05:25:38;28.80;57.50
16074;DHT22;8141;52.664;5.074;2023-06-26T05:28:04;28.70;57.40
16074;DHT22;8141;52.664;5.074;2023-06-26T05:30:31;28.70;57.50
16074;DHT22;8141;52.664;5.074;2023-06-26T05:33:00;28.70;57.50
16074;DHT22;8141;52.664;5.074;2023-06-26T05:35:28;28.70;57.30
16074;DHT22;8141;52.664;5.074;2023-06-26T05:37:58;28.70;57.50
16074;DHT22;8141;52.664;5.074;2023-06-26T05:40:25;28.70;57.10
16074;DHT22;8141;52.664;5.074;2023-06-26T05:42:51;28.70;57.30
16074;DHT22;8141;52.664;5.074;2023-06-26T05:45:17;28.70;57.30
16074;DHT22;8141;52.664;5.074;2023-06-26T05:47:43;28.70;57.40
16074;DHT22;8141;52.664;5.074;2023-06-26T05:50:09;28.70;57.20
16074;DHT22;8141;52.664;5.074;2023-06-26T05:52:36;28.70;57.30
16074;DHT22;8141;52.664;5.074;2023-06-26T05:55:04;28.70;57.10
16074;DHT22;8141;52.664;5.074;2023-06-26T05:57:31;28.60;57.20
16074;DHT22;8141;52.664;5.074;2023-06-26T05:59:57;28.70;57.20
16074;DHT22;8141;52.664;5.074;2023-06-26T06:02:23;28.60;57.40
16074;DHT22;8141;52.664;5.074;2023-06-26T06:04:49;28.60;57.40
16074;DHT22;8141;52.664;5.074;2023-06-26T06:07:15;28.60;57.20
16074;DHT22;8141;52.664;5.074;2023-06-26T06:09:40;28.60;57.20
16074;DHT22;8141;52.664;5.074;2023-06-26T06:12:07;28.60;57.30
16074;DHT22;8141;52.664;5.074;2023-06-26T06:14:34;28.60;57.40
16074;DHT22;8141;52.664;5.074;2023-06-26T06:17:00;28.60;57.30
16074;DHT22;8141;52.664;5.074;2023-06-26T06:19:26;28.60;57.30
16074;DHT22;8141;52.664;5.074;2023-06-26T06:21:52;28.60;57.20
16074;DHT22;8141;52.664;5.074;2023-06-26T06:24:18;28.60;57.10
16074;DHT22;8141;52.664;5.074;2023-06-26T06:26:44;28.60;57.10
16074;DHT22;8141;52.664;5.074;2023-06-26T06:29:10;28.60;57.00
16074;DHT22;8141;52.664;5.074;2023-06-26T06:31:35;28.60;57.10
16074;DHT22;8141;52.664;5.074;2023-06-26T06:34:01;28.60;57.00
16074;DHT22;8141;52.664;5.074;2023-06-26T06:36:27;28.60;57.80
16074;DHT22;8141;52.664;5.074;2023-06-26T06:38:53;28.60;57.10
16074;DHT22;8141;52.664;5.074;2023-06-26T06:41:20;28.60;57.30
16074;DHT22;8141;52.664;5.074;2023-06-26T06:43:46;28.60;57.10
16074;DHT22;8141;52.664;5.074;2023-06-26T06:46:12;28.60;57.20
16074;DHT22;8141;52.664;5.074;2023-06-26T06:48:37;28.60;57.20
16074;DHT22;8141;52.664;5.074;2023-06-26T06:51:04;28.60;57.30
16074;DHT22;8141;52.664;5.074;2023-06-26T06:53:31;28.60;57.30
16074;DHT22;8141;52.664;5.074;2023-06-26T06:55:57;28.60;57.20
16074;DHT22;8141;52.664;5.074;2023-06-26T06:58:22;28.60;57.20
16074;DHT22;8141;52.664;5.074;2023-06-26T07:00:49;28.60;57.10
16074;DHT22;8141;52.664;5.074;2023-06-26T07:03:14;28.60;57.10
16074;DHT22;8141;52.664;5.074;2023-06-26T07:05:43;28.50;57.10
16074;DHT22;8141;52.664;5.074;2023-06-26T07:08:09;28.60;57.20
16074;DHT22;8141;52.664;5.074;2023-06-26T07:10:35;28.60;57.00
16074;DHT22;8141;52.664;5.074;2023-06-26T07:13:01;28.50;56.90
16074;DHT22;8141;52.664;5.074;2023-06-26T07:15:27;28.50;57.00
16074;DHT22;8141;52.664;5.074;2023-06-26T07:17:53;28.50;57.00
16074;DHT22;8141;52.664;5.074;2023-06-26T07:20:18;28.60;57.20
16074;DHT22;8141;52.664;5.074;2023-06-26T07:22:44;28.50;56.20
16074;DHT22;8141;52.664;5.074;2023-06-26T07:25:11;28.60;56.20
16074;DHT22;8141;52.664;5.074;2023-06-26T07:27:37;28.50;55.30
16074;DHT22;8141;52.664;5.074;2023-06-26T07:30:04;28.50;55.00
16074;DHT22;8141;52.664;5.074;2023-06-26T07:32:30;28.50;54.80
16074;DHT22;8141;52.664;5.074;2023-06-26T07:34:56;28.40;54.50
16074;DHT22;8141;52.664;5.074;2023-06-26T07:37:22;28.40;54.20
16074;DHT22;8141;52.664;5.074;2023-06-26T07:39:49;28.30;54.30
16074;DHT22;8141;52.664;5.074;2023-06-26T07:42:14;28.30;54.00
16074;DHT22;8141;52.664;5.074;2023-06-26T07:44:42;28.30;54.50
16074;DHT22;8141;52.664;5.074;2023-06-26T07:47:08;28.30;54.30
16074;DHT22;8141;52.664;5.074;2023-06-26T07:49:35;28.30;54.30
16074;DHT22;8141;52.664;5.074;2023-06-26T07:52:01;28.20;53.90
16074;DHT22;8141;52.664;5.074;2023-06-26T07:54:27;28.20;54.00
16074;DHT22;8141;52.664;5.074;2023-06-26T07:56:57;28.20;53.90
16074;DHT22;8141;52.664;5.074;2023-06-26T07:59:25;28.10;53.80
16074;DHT22;8141;52.664;5.074;2023-06-26T08:01:53;28.20;53.50
16074;DHT22;8141;52.664;5.074;2023-06-26T08:04:21;28.10;53.20
16074;DHT22;8141;52.664;5.074;2023-06-26T08:06:53;28.10;53.40
16074;DHT22;8141;52.664;5.074;2023-06-26T08:09:21;28.10;53.30
16074;DHT22;8141;52.664;5.074;2023-06-26T08:11:48;28.10;53.20
16074;DHT22;8141;52.664;5.074;2023-06-26T08:14:15;28.00;52.60
16074;DHT22;8141;52.664;5.074;2023-06-26T08:16:42;28.00;52.90
16074;DHT22;8141;52.664;5.074;2023-06-26T08:19:09;28.00;52.80
16074;DHT22;8141;52.664;5.074;2023-06-26T08:21:36;28.00;52.80
16074;DHT22;8141;52.664;5.074;2023-06-26T08:24:02;28.00;52.40
16074;DHT22;8141;52.664;5.074;2023-06-26T08:26:28;28.00;52.30
16074;DHT22;8141;52.664;5.074;2023-06-26T08:28:54;27.90;52.40
16074;DHT22;8141;52.664;5.074;2023-06-26T08:31:19;27.90;52.20
16074;DHT22;8141;52.664;5.074;2023-06-26T08:33:46;27.90;52.40
16074;DHT22;8141;52.664;5.074;2023-06-26T08:36:13;27.90;52.30
16074;DHT22;8141;52.664;5.074;2023-06-26T08:38:39;27.90;52.10
16074;DHT22;8141;52.664;5.074;2023-06-26T08:41:08;27.90;52.10
16074;DHT22;8141;52.664;5.074;2023-06-26T08:43:35;27.80;51.90
16074;DHT22;8141;52.664;5.074;2023-06-26T08:46:01;27.80;52.00
16074;DHT22;8141;52.664;5.074;2023-06-26T08:48:30;27.80;52.00
16074;DHT22;8141;52.664;5.074;2023-06-26T08:51:01;27.80;52.00
16074;DHT22;8141;52.664;5.074;2023-06-26T08:53:51;27.80;52.20
16074;DHT22;8141;52.664;5.074;2023-06-26T08:56:22;27.80;51.90
16074;DHT22;8141;52.664;5.074;2023-06-26T08:58:49;27.80;52.70
16074;DHT22;8141;52.664;5.074;2023-06-26T09:01:17;27.70;52.00
16074;DHT22;8141;52.664;5.074;2023-06-26T09:03:44;27.70;51.70
16074;DHT22;8141;52.664;5.074;2023-06-26T09:06:10;27.70;51.80
16074;DHT22;8141;52.664;5.074;2023-06-26T09:08:36;27.70;51.60
16074;DHT22;8141;52.664;5.074;2023-06-26T09:11:02;27.70;51.70
16074;DHT22;8141;52.664;5.074;2023-06-26T09:13:31;27.60;51.70
16074;DHT22;8141;52.664;5.074;2023-06-26T09:15:57;27.60;51.50
16074;DHT22;8141;52.664;5.074;2023-06-26T09:18:24;27.60;51.40
16074;DHT22;8141;52.664;5.074;2023-06-26T09:20:50;27.60;51.20
16074;DHT22;8141;52.664;5.074;2023-06-26T09:23:16;27.60;51.20
16074;DHT22;8141;52.664;5.074;2023-06-26T09:25:42;27.50;51.10
16074;DHT22;8141;52.664;5.074;2023-06-26T09:28:10;27.60;51.10
16074;DHT22;8141;52.664;5.074;2023-06-26T09:30:36;27.50;51.30
16074;DHT22;8141;52.664;5.074;2023-06-26T09:33:27;27.60;51.40
16074;DHT22;8141;52.664;5.074;2023-06-26T09:35:59;27.60;51.40
16074;DHT22;8141;52.664;5.074;2023-06-26T09:38:25;27.60;51.00
16074;DHT22;8141;52.664;5.074;2023-06-26T09:40:50;27.50;50.80
16074;DHT22;8141;52.664;5.074;2023-06-26T09:43:16;27.60;50.80
16074;DHT22;8141;52.664;5.074;2023-06-26T09:45:44;27.50;50.80
16074;DHT22;8141;52.664;5.074;2023-06-26T09:48:10;27.50;50.30
16074;DHT22;8141;52.664;5.074;2023-06-26T09:50:37;27.50;50.00
16074;DHT22;8141;52.664;5.074;2023-06-26T09:53:08;27.50;49.50
16074;DHT22;8141;52.664;5.074;2023-06-26T09:55:37;27.40;49.70
16074;DHT22;8141;52.664;5.074;2023-06-26T09:58:03;27.50;49.80
16074;DHT22;8141;52.664;5.074;2023-06-26T10:00:32;27.40;49.20
16074;DHT22;8141;52.664;5.074;2023-06-26T10:02:59;27.40;49.10
16074;DHT22;8141;52.664;5.074;2023-06-26T10:05:26;27.40;49.10
16074;DHT22;8141;52.664;5.074;2023-06-26T10:07:53;27.40;49.10
16074;DHT22;8141;52.664;5.074;2023-06-26T10:10:20;27.30;49.20
16074;DHT22;8141;52.664;5.074;2023-06-26T10:12:49;27.40;49.50
16074;DHT22;8141;52.664;5.074;2023-06-26T10:15:19;27.30;49.40
16074;DHT22;8141;52.664;5.074;2023-06-26T10:17:46;27.30;49.30
16074;DHT22;8141;52.664;5.074;2023-06-26T10:20:14;27.30;49.50
16074;DHT22;8141;52.664;5.074;2023-06-26T10:22:45;27.30;49.50
16074;DHT22;8141;52.664;5.074;2023-06-26T10:25:16;27.30;49.40
16074;DHT22;8141;52.664;5.074;2023-06-26T10:27:47;27.20;49.60
16074;DHT22;8141;52.664;5.074;2023-06-26T10:30:18;27.20;49.70
16074;DHT22;8141;52.664;5.074;2023-06-26T10:32:47;27.30;49.70
16074;DHT22;8141;52.664;5.074;2023-06-26T10:35:13;27.30;49.60
16074;DHT22;8141;52.664;5.074;2023-06-26T10:37:44;27.20;49.60
16074;DHT22;8141;52.664;5.074;2023-06-26T10:40:11;27.20;49.40
16074;DHT22;8141;52.664;5.074;2023-06-26T10:42:39;27.20;49.80
16074;DHT22;8141;52.664;5.074;2023-06-26T10:45:16;27.30;49.70
16074;DHT22;8141;52.664;5.074;2023-06-26T10:47:46;27.30;49.80
16074;DHT22;8141;52.664;5.074;2023-06-26T10:53:14;27.20;49.40
16074;DHT22;8141;52.664;5.074;2023-06-26T10:56:00;27.20;49.40
16074;DHT22;8141;52.664;5.074;2023-06-26T10:58:41;27.20;49.10
16074;DHT22;8141;52.664;5.074;2023-06-26T11:01:17;27.10;49.40
16074;DHT22;8141;52.664;5.074;2023-06-26T11:03:46;27.10;48.70
16074;DHT22;8141;52.664;5.074;2023-06-26T11:06:20;27.10;49.30
16074;DHT22;8141;52.664;5.074;2023-06-26T11:08:54;27.10;49.30
16074;DHT22;8141;52.664;5.074;2023-06-26T11:14:22;27.00;49.30
16074;DHT22;8141;52.664;5.074;2023-06-26T11:16:48;27.00;49.20
16074;DHT22;8141;52.664;5.074;2023-06-26T11:19:18;27.00;49.10
16074;DHT22;8141;52.664;5.074;2023-06-26T11:21:45;27.00;49.10
16074;DHT22;8141;52.664;5.074;2023-06-26T11:24:12;27.00;49.20
16074;DHT22;8141;52.664;5.074;2023-06-26T11:26:43;27.00;49.00
16074;DHT22;8141;52.664;5.074;2023-06-26T11:29:10;27.00;49.00
16074;DHT22;8141;52.664;5.074;2023-06-26T11:31:38;27.00;49.00
16074;DHT22;8141;52.664;5.074;2023-06-26T11:34:07;26.90;49.10
16074;DHT22;8141;52.664;5.074;2023-06-26T11:36:36;26.90;49.10
16074;DHT22;8141;52.664;5.074;2023-06-26T11:39:05;26.90;49.30
16074;DHT22;8141;52.664;5.074;2023-06-26T11:41:33;26.90;49.50
16074;DHT22;8141;52.664;5.074;2023-06-26T11:44:07;27.00;49.60
16074;DHT22;8141;52.664;5.074;2023-06-26T11:46:35;27.00;49.40
16074;DHT22;8141;52.664;5.074;2023-06-26T11:49:08;26.90;49.20
16074;DHT22;8141;52.664;5.074;2023-06-26T11:51:34;26.90;49.20
16074;DHT22;8141;52.664;5.074;2023-06-26T11:54:02;26.90;49.00
16074;DHT22;8141;52.664;5.074;2023-06-26T11:56:29;26.90;48.80
16074;DHT22;8141;52.664;5.074;2023-06-26T12:01:44;26.90;49.10
16074;DHT22;8141;52.664;5.074;2023-06-26T12:04:16;26.90;49.10
16074;DHT22;8141;52.664;5.074;2023-06-26T12:06:46;26.90;49.20
16074;DHT22;8141;52.664;5.074;2023-06-26T12:09:13;26.90;49.10
16074;DHT22;8141;52.664;5.074;2023-06-26T12:11:43;26.90;49.10
16074;DHT22;8141;52.664;5.074;2023-06-26T12:14:11;26.90;48.90
16074;DHT22;8141;52.664;5.074;2023-06-26T12:16:37;26.80;48.80
16074;DHT22;8141;52.664;5.074;2023-06-26T12:19:06;26.80;49.30
16074;DHT22;8141;52.664;5.074;2023-06-26T12:24:08;26.90;49.80
16074;DHT22;8141;52.664;5.074;2023-06-26T12:26:36;26.90;50.10
16074;DHT22;8141;52.664;5.074;2023-06-26T12:29:10;26.90;50.20
16074;DHT22;8141;52.664;5.074;2023-06-26T12:31:41;27.00;50.40
16074;DHT22;8141;52.664;5.074;2023-06-26T12:34:12;27.00;50.60
16074;DHT22;8141;52.664;5.074;2023-06-26T12:36:46;27.00;50.40
16074;DHT22;8141;52.664;5.074;2023-06-26T12:39:17;27.10;51.40
16074;DHT22;8141;52.664;5.074;2023-06-26T12:41:52;27.10;51.10
16074;DHT22;8141;52.664;5.074;2023-06-26T12:44:27;27.20;51.20
16074;DHT22;8141;52.664;5.074;2023-06-26T12:47:00;27.30;51.30
16074;DHT22;8141;52.664;5.074;2023-06-26T12:49:37;27.40;51.30
16074;DHT22;8141;52.664;5.074;2023-06-26T12:52:05;27.40;51.30
16074;DHT22;8141;52.664;5.074;2023-06-26T12:54:42;27.40;51.20
16074;DHT22;8141;52.664;5.074;2023-06-26T12:57:09;27.50;51.60
16074;DHT22;8141;52.664;5.074;2023-06-26T12:59:37;27.50;51.70
16074;DHT22;8141;52.664;5.074;2023-06-26T13:02:03;27.50;51.70
16074;DHT22;8141;52.664;5.074;2023-06-26T13:04:29;27.50;51.60
16074;DHT22;8141;52.664;5.074;2023-06-26T13:06:55;27.50;51.50
16074;DHT22;8141;52.664;5.074;2023-06-26T13:09:25;27.60;51.50
16074;DHT22;8141;52.664;5.074;2023-06-26T13:11:52;27.60;52.00
16074;DHT22;8141;52.664;5.074;2023-06-26T13:14:18;27.60;51.90
16074;DHT22;8141;52.664;5.074;2023-06-26T13:16:44;27.60;51.90
16074;DHT22;8141;52.664;5.074;2023-06-26T13:19:10;27.60;52.00
16074;DHT22;8141;52.664;5.074;2023-06-26T13:21:36;27.70;52.00
16074;DHT22;8141;52.664;5.074;2023-06-26T13:24:02;27.70;52.10
16074;DHT22;8141;52.664;5.074;2023-06-26T13:26:31;27.70;52.10
16074;DHT22;8141;52.664;5.074;2023-06-26T13:28:58;27.70;52.10
16074;DHT22;8141;52.664;5.074;2023-06-26T13:31:24;27.80;52.30
16074;DHT22;8141;52.664;5.074;2023-06-26T13:33:49;27.80;52.40
16074;DHT22;8141;52.664;5.074;2023-06-26T13:36:17;27.80;52.30
16074;DHT22;8141;52.664;5.074;2023-06-26T13:38:44;27.80;52.40
16074;DHT22;8141;52.664;5.074;2023-06-26T13:41:10;27.80;52.30
16074;DHT22;8141;52.664;5.074;2023-06-26T13:43:36;27.90;52.40
16074;DHT22;8141;52.664;5.074;2023-06-26T13:46:02;27.90;52.40
16074;DHT22;8141;52.664;5.074;2023-06-26T13:48:28;27.90;52.60
16074;DHT22;8141;52.664;5.074;2023-06-26T13:50:54;27.90;52.40
16074;DHT22;8141;52.664;5.074;2023-06-26T13:53:21;28.00;53.10
16074;DHT22;8141;52.664;5.074;2023-06-26T13:55:47;28.00;52.40
16074;DHT22;8141;52.664;5.074;2023-06-26T13:58:14;28.00;52.40
16074;DHT22;8141;52.664;5.074;2023-06-26T14:00:39;28.00;52.40
16074;DHT22;8141;52.664;5.074;2023-06-26T14:03:06;28.00;52.40
16074;DHT22;8141;52.664;5.074;2023-06-26T14:05:33;28.00;52.20
16074;DHT22;8141;52.664;5.074;2023-06-26T14:08:01;28.10;52.10
16074;DHT22;8141;52.664;5.074;2023-06-26T14:10:28;28.10;52.10
16074;DHT22;8141;52.664;5.074;2023-06-26T14:12:54;28.10;52.40
16074;DHT22;8141;52.664;5.074;2023-06-26T14:15:19;28.10;52.50
16074;DHT22;8141;52.664;5.074;2023-06-26T14:17:45;28.10;52.50
16074;DHT22;8141;52.664;5.074;2023-06-26T14:20:13;28.10;52.40
16074;DHT22;8141;52.664;5.074;2023-06-26T14:22:40;28.10;52.50
16074;DHT22;8141;52.664;5.074;2023-06-26T14:25:09;28.20;52.50
16074;DHT22;8141;52.664;5.074;2023-06-26T14:27:36;28.20;52.70
16074;DHT22;8141;52.664;5.074;2023-06-26T14:30:06;28.20;52.60
16074;DHT22;8141;52.664;5.074;2023-06-26T14:32:35;28.20;52.50
16074;DHT22;8141;52.664;5.074;2023-06-26T14:35:02;28.20;52.40
16074;DHT22;8141;52.664;5.074;2023-06-26T14:37:29;28.20;52.40
16074;DHT22;8141;52.664;5.074;2023-06-26T14:39:56;28.20;52.50
16074;DHT22;8141;52.664;5.074;2023-06-26T14:42:23;28.20;53.10
16074;DHT22;8141;52.664;5.074;2023-06-26T14:44:48;28.20;52.50
16074;DHT22;8141;52.664;5.074;2023-06-26T14:47:16;28.30;52.50
16074;DHT22;8141;52.664;5.074;2023-06-26T14:49:43;28.30;52.50
16074;DHT22;8141;52.664;5.074;2023-06-26T14:52:09;28.30;52.50
16074;DHT22;8141;52.664;5.074;2023-06-26T14:54:35;28.30;52.40
16074;DHT22;8141;52.664;5.074;2023-06-26T14:57:04;28.30;52.30
16074;DHT22;8141;52.664;5.074;2023-06-26T14:59:31;28.30;52.20
16074;DHT22;8141;52.664;5.074;2023-06-26T15:01:56;28.30;52.10
16074;DHT22;8141;52.664;5.074;2023-06-26T15:04:22;28.30;52.10
16074;DHT22;8141;52.664;5.074;2023-06-26T15:06:48;28.30;51.90
16074;DHT22;8141;52.664;5.074;2023-06-26T15:09:14;28.30;51.90
16074;DHT22;8141;52.664;5.074;2023-06-26T15:11:40;28.30;51.90
16074;DHT22;8141;52.664;5.074;2023-06-26T15:14:05;28.30;51.90
16074;DHT22;8141;52.664;5.074;2023-06-26T15:16:31;28.40;51.70
16074;DHT22;8141;52.664;5.074;2023-06-26T15:18:57;28.40;51.70
16074;DHT22;8141;52.664;5.074;2023-06-26T15:21:23;28.40;51.70
16074;DHT22;8141;52.664;5.074;2023-06-26T15:23:50;28.40;51.60
16074;DHT22;8141;52.664;5.074;2023-06-26T15:26:16;28.40;51.50
16074;DHT22;8141;52.664;5.074;2023-06-26T15:28:42;28.30;51.20
16074;DHT22;8141;52.664;5.074;2023-06-26T15:31:07;28.30;51.20
16074;DHT22;8141;52.664;5.074;2023-06-26T15:33:33;28.30;51.00
16074;DHT22;8141;52.664;5.074;2023-06-26T15:36:00;28.40;51.10
16074;DHT22;8141;52.664;5.074;2023-06-26T15:38:28;28.30;50.90
16074;DHT22;8141;52.664;5.074;2023-06-26T15:40:54;28.30;50.80
16074;DHT22;8141;52.664;5.074;2023-06-26T15:43:20;28.30;50.70
16074;DHT22;8141;52.664;5.074;2023-06-26T15:45:46;28.30;50.60
16074;DHT22;8141;52.664;5.074;2023-06-26T15:48:11;28.30;50.60
16074;DHT22;8141;52.664;5.074;2023-06-26T15:50:37;28.40;50.80
16074;DHT22;8141;52.664;5.074;2023-06-26T15:53:04;28.30;50.50
16074;DHT22;8141;52.664;5.074;2023-06-26T15:55:30;28.30;50.50
16074;DHT22;8141;52.664;5.074;2023-06-26T15:57:55;28.30;51.10